M I D A S
Marine Information and Data Acquisition System
Tripno 2205 of the Zeeleeuw from 2011-10-25 07:10:08 to 2011-10-25 15:10:04
Back to CruiseResearch ActivitiesStationsMapUnderway DataData graphs

EquipmentUnitsComment
TimeDGPSUTC
LatitudeDGPSDM.mWGS84
LongitudeDGPSDM.mWGS84
HeadingGyrodeg 
SOGDGPSknotsSpeed over ground
COGDGPSdegCourse over ground
DepthEcho soundermeters200 kHz
Missing or incorrect values are displayed as -999
Navigation data collected by the RV Zeeleeuw from 2011-10-25 06:49:53 to 2011-10-25 15:21:05
                                                                                    Next 1000 lines
Time Latitude Longitude Heading SOG COG Depth
2011-10-25 06:50:04 51°13.637 2°56.018 124.4 -999 310 7.2
2011-10-25 06:50:09 51°13.637 2°56.019 124.4 -999 124 7.2
2011-10-25 06:50:14 51°13.637 2°56.019 124.4 -999 140 7.6
2011-10-25 06:50:19 51°13.637 2°56.019 124.4 -999 346 -999
2011-10-25 06:50:24 51°13.637 2°56.019 124.4 -999 324 -999
2011-10-25 06:50:29 51°13.637 2°56.019 124.4 -999 156 7.2
2011-10-25 06:50:34 51°13.637 2°56.019 124.4 -999 170 -999
2011-10-25 06:50:40 51°13.637 2°56.018 124.5 -999 300 -999
2011-10-25 06:50:44 51°13.637 2°56.018 124.6 -999 271 7.1
2011-10-25 06:50:49 51°13.637 2°56.018 124.7 -999 228 7.1
2011-10-25 06:50:54 51°13.637 2°56.019 124.8 -999 139 7.2
2011-10-25 06:50:59 51°13.636 2°56.019 124.9 0.1 172 7
2011-10-25 06:51:04 51°13.636 2°56.018 124.9 -999 206 7.4
2011-10-25 06:51:09 51°13.636 2°56.018 125.1 -999 195 7
2011-10-25 06:51:14 51°13.636 2°56.018 125.2 -999 16 -999
2011-10-25 06:51:18 51°13.636 2°56.018 125.2 -999 287 7
2011-10-25 06:51:24 51°13.636 2°56.018 125.2 -999 327 7
2011-10-25 06:51:29 51°13.636 2°56.018 125 -999 127 7
2011-10-25 06:51:33 51°13.636 2°56.018 124.9 -999 63 7
2011-10-25 06:51:38 51°13.636 2°56.018 124.9 -999 263 7
2011-10-25 06:51:42 51°13.636 2°56.018 125.1 0.1 29 7
2011-10-25 06:51:49 51°13.636 2°56.018 125.2 -999 22 -999
2011-10-25 06:51:54 51°13.636 2°56.018 125.2 -999 7 7.2
2011-10-25 06:51:59 51°13.636 2°56.018 124.9 -999 266 7.2
2011-10-25 06:52:03 51°13.636 2°56.018 124.5 0.1 339 7.6
2011-10-25 06:52:08 51°13.636 2°56.018 124.3 -999 278 -999
2011-10-25 06:52:13 51°13.636 2°56.018 124.2 -999 317 7.2
2011-10-25 06:52:18 51°13.636 2°56.018 123.8 -999 14 5.6
2011-10-25 06:52:23 51°13.636 2°56.018 123.5 -999 290 -999
2011-10-25 06:52:28 51°13.636 2°56.018 123.5 -999 27 -999
2011-10-25 06:52:34 51°13.636 2°56.018 123.4 -999 321 -999
2011-10-25 06:52:39 51°13.636 2°56.018 123.4 -999 241 7.5
2011-10-25 06:52:43 51°13.636 2°56.018 123.4 -999 39 7.2
2011-10-25 06:52:48 51°13.636 2°56.018 123.4 -999 47 7.2
2011-10-25 06:52:53 51°13.636 2°56.018 123.5 -999 64 7.2
2011-10-25 06:52:58 51°13.636 2°56.018 123.5 -999 61 7.2
2011-10-25 06:53:03 51°13.636 2°56.018 123.5 -999 6 7.2
2011-10-25 06:53:08 51°13.636 2°56.018 123.6 -999 303 7.2
2011-10-25 06:53:12 51°13.636 2°56.018 123.7 -999 172 7.1
2011-10-25 06:53:18 51°13.636 2°56.018 123.7 -999 208 7.2
2011-10-25 06:53:24 51°13.636 2°56.019 123.7 -999 317 7.2
2011-10-25 06:53:28 51°13.636 2°56.019 123.7 -999 357 7.2
2011-10-25 06:53:34 51°13.636 2°56.019 123.7 -999 351 -999
2011-10-25 06:53:39 51°13.636 2°56.019 123.7 -999 347 7.2
2011-10-25 06:53:44 51°13.636 2°56.019 123.7 -999 342 7.2
2011-10-25 06:53:49 51°13.636 2°56.019 123.7 -999 217 7.2
2011-10-25 06:53:54 51°13.636 2°56.018 123.7 0.1 214 7.3
2011-10-25 06:54:00 51°13.636 2°56.018 123.7 -999 207 -999
2011-10-25 06:54:04 51°13.636 2°56.018 123.7 -999 188 7.2
2011-10-25 06:54:09 51°13.636 2°56.019 123.7 -999 202 7.1
2011-10-25 06:54:14 51°13.636 2°56.019 123.7 -999 194 7.1
2011-10-25 06:54:19 51°13.636 2°56.019 123.8 -999 147 7
2011-10-25 06:54:24 51°13.636 2°56.019 124 -999 261 7
2011-10-25 06:54:29 51°13.636 2°56.019 124.1 -999 221 7
2011-10-25 06:54:34 51°13.636 2°56.019 124.2 -999 307 7
2011-10-25 06:54:38 51°13.636 2°56.019 124.2 -999 349 7.1
2011-10-25 06:54:43 51°13.636 2°56.019 124.1 -999 351 7.2
2011-10-25 06:54:48 51°13.636 2°56.019 123.8 -999 1 7.1
2011-10-25 06:54:53 51°13.636 2°56.019 123.5 -999 23 7.2
2011-10-25 06:54:58 51°13.636 2°56.019 123.2 -999 338 5.6
2011-10-25 06:55:04 51°13.636 2°56.019 123 -999 34 7.2
2011-10-25 06:55:08 51°13.636 2°56.019 123 -999 35 7.6
2011-10-25 06:55:13 51°13.636 2°56.019 123 -999 58 7.2
2011-10-25 06:55:19 51°13.635 2°56.018 123 -999 196 -999
2011-10-25 06:55:24 51°13.635 2°56.018 123 -999 222 7.2
2011-10-25 06:55:29 51°13.635 2°56.018 123.2 0.1 203 7.1
2011-10-25 06:55:35 51°13.635 2°56.018 123.3 -999 44 7.1
2011-10-25 06:55:38 51°13.635 2°56.018 123.4 -999 156 7
2011-10-25 06:55:44 51°13.635 2°56.019 123.4 -999 355 7.1
2011-10-25 06:55:49 51°13.635 2°56.019 123.4 -999 169 7.2
2011-10-25 06:55:54 51°13.635 2°56.019 123.4 -999 56 7.1
2011-10-25 06:55:59 51°13.635 2°56.019 123.4 -999 100 7.1
2011-10-25 06:56:03 51°13.635 2°56.019 123.5 -999 14 7.2
2011-10-25 06:56:08 51°13.635 2°56.019 123.5 -999 194 7.1
2011-10-25 06:56:13 51°13.635 2°56.019 123.5 -999 346 7.1
2011-10-25 06:56:18 51°13.635 2°56.019 123.5 -999 25 7.1
2011-10-25 06:56:23 51°13.635 2°56.019 123.5 -999 353 7.1
2011-10-25 06:56:28 51°13.635 2°56.019 123.5 -999 353 7.1
2011-10-25 06:56:33 51°13.635 2°56.019 123.4 -999 3 7.1
2011-10-25 06:56:38 51°13.635 2°56.019 123.3 -999 326 7.3
2011-10-25 06:56:43 51°13.634 2°56.019 123.2 -999 269 7.1
2011-10-25 06:56:47 51°13.634 2°56.019 123.2 -999 242 7.2
2011-10-25 06:56:52 51°13.634 2°56.019 123.3 -999 304 7.2
2011-10-25 06:56:57 51°13.633 2°56.019 123.4 -999 294 7.2
2011-10-25 06:57:02 51°13.631 2°56.019 123.4 0.1 222 7.2
2011-10-25 06:57:07 51°13.63 2°56.019 123.4 0.1 222 7.2
2011-10-25 06:57:11 51°13.63 2°56.019 123.5 -999 225 5.5
2011-10-25 06:57:17 51°13.629 2°56.02 123.5 -999 290 7.2
2011-10-25 06:57:22 51°13.629 2°56.02 123.5 -999 233 7.1
2011-10-25 06:57:27 51°13.629 2°56.021 123.5 -999 170 7.6
2011-10-25 06:57:31 51°13.629 2°56.021 123.5 -999 214 7.2
2011-10-25 06:57:37 51°13.629 2°56.021 123.5 -999 358 5.6
2011-10-25 06:57:42 51°13.629 2°56.021 123.4 -999 113 -999
2011-10-25 06:57:47 51°13.63 2°56.021 123.4 -999 238 7.2
2011-10-25 06:57:52 51°13.631 2°56.021 123.2 -999 3 7.2
2011-10-25 06:57:58 51°13.631 2°56.021 123.1 0.1 212 -999
2011-10-25 06:58:03 51°13.631 2°56.021 123 0.1 219 7.3
2011-10-25 06:58:08 51°13.631 2°56.022 123 0.1 222 7.2
2011-10-25 06:58:13 51°13.631 2°56.022 123 -999 68 -999
2011-10-25 06:58:19 51°13.63 2°56.023 123 -999 173 7.2
2011-10-25 06:58:24 51°13.63 2°56.023 123 -999 192 7.2
2011-10-25 06:58:28 51°13.63 2°56.023 123.1 -999 238 5.5
2011-10-25 06:58:33 51°13.63 2°56.023 123.2 -999 251 7.2
2011-10-25 06:58:38 51°13.63 2°56.023 123.2 -999 206 7.3
2011-10-25 06:58:43 51°13.63 2°56.023 123.2 -999 37 7.3
2011-10-25 06:58:48 51°13.631 2°56.023 123.2 -999 327 -999
2011-10-25 06:58:53 51°13.631 2°56.023 123.2 -999 28 7.3
2011-10-25 06:58:58 51°13.631 2°56.023 123.2 -999 138 7.4
2011-10-25 06:59:04 51°13.632 2°56.023 123.2 -999 327 -999
2011-10-25 06:59:08 51°13.632 2°56.023 123.2 -999 353 7.3
2011-10-25 06:59:14 51°13.632 2°56.023 123.2 -999 44 7.4
2011-10-25 06:59:19 51°13.632 2°56.023 123.1 -999 348 -999
2011-10-25 06:59:24 51°13.632 2°56.023 123.1 -999 64 -999
2011-10-25 06:59:29 51°13.632 2°56.023 123.1 -999 184 -999
2011-10-25 06:59:34 51°13.632 2°56.023 123.2 -999 323 7.4
2011-10-25 06:59:40 51°13.632 2°56.022 123.2 -999 91 7.3
2011-10-25 06:59:45 51°13.632 2°56.022 123.2 -999 302 -999
2011-10-25 06:59:49 51°13.632 2°56.023 123.2 -999 324 -999
2011-10-25 06:59:54 51°13.631 2°56.022 123.2 -999 215 -999
2011-10-25 07:00:00 51°13.631 2°56.022 123.2 -999 336 -999
2011-10-25 07:00:05 51°13.631 2°56.022 123.2 -999 227 -999
2011-10-25 07:00:09 51°13.631 2°56.022 123.2 -999 11 -999
2011-10-25 07:00:15 51°13.631 2°56.022 123.2 -999 184 -999
2011-10-25 07:00:19 51°13.631 2°56.022 123.2 -999 297 7.3
2011-10-25 07:00:25 51°13.631 2°56.022 123.1 -999 286 7.3
2011-10-25 07:00:29 51°13.631 2°56.022 123 -999 123 7.3
2011-10-25 07:00:34 51°13.631 2°56.022 122.9 -999 117 5.6
2011-10-25 07:00:39 51°13.631 2°56.022 122.9 -999 196 7.3
2011-10-25 07:00:44 51°13.631 2°56.022 122.8 -999 225 7.2
2011-10-25 07:00:49 51°13.631 2°56.022 122.7 -999 204 7.2
2011-10-25 07:00:54 51°13.631 2°56.022 122.7 -999 197 7.3
2011-10-25 07:00:59 51°13.631 2°56.022 122.7 -999 202 -999
2011-10-25 07:01:04 51°13.632 2°56.022 122.7 -999 235 7.2
2011-10-25 07:01:09 51°13.632 2°56.022 122.7 -999 301 7.2
2011-10-25 07:01:14 51°13.632 2°56.022 122.7 -999 220 7.2
2011-10-25 07:01:18 51°13.632 2°56.022 122.7 0.1 28 7.2
2011-10-25 07:01:23 51°13.632 2°56.022 122.8 -999 358 7.2
2011-10-25 07:01:29 51°13.632 2°56.022 122.8 -999 359 7.7
2011-10-25 07:01:33 51°13.632 2°56.021 122.7 -999 32 7.2
2011-10-25 07:01:39 51°13.634 2°56.021 122.6 -999 215 7.2
2011-10-25 07:01:44 51°13.635 2°56.021 122.5 -999 303 7.2
2011-10-25 07:01:49 51°13.636 2°56.021 122.4 -999 32 -999
2011-10-25 07:01:54 51°13.636 2°56.02 122.3 -999 193 -999
2011-10-25 07:01:59 51°13.637 2°56.019 122.3 -999 293 7.3
2011-10-25 07:02:05 51°13.637 2°56.019 122.3 -999 309 -999
2011-10-25 07:02:10 51°13.637 2°56.018 122.4 -999 326 7.2
2011-10-25 07:02:14 51°13.637 2°56.017 122.4 -999 196 -999
2011-10-25 07:02:19 51°13.637 2°56.017 122.4 0.1 204 -999
2011-10-25 07:02:25 51°13.637 2°56.016 122.4 -999 27 -999
2011-10-25 07:02:30 51°13.638 2°56.014 122.3 -999 -999 7.3
2011-10-25 07:02:34 51°13.638 2°56.014 122.2 0.1 18 7.4
2011-10-25 07:02:39 51°13.638 2°56.014 122.2 -999 29 7.3
2011-10-25 07:02:44 51°13.638 2°56.015 122.2 -999 214 7.3
2011-10-25 07:02:49 51°13.638 2°56.017 122.1 -999 7 7.2
2011-10-25 07:02:55 51°13.638 2°56.018 122.1 -999 13 7.3
2011-10-25 07:02:59 51°13.637 2°56.018 122.1 -999 207 7.3
2011-10-25 07:03:04 51°13.637 2°56.018 122.1 -999 203 7.3
2011-10-25 07:03:10 51°13.636 2°56.017 122.1 -999 202 -999
2011-10-25 07:03:15 51°13.636 2°56.016 122.1 -999 17 -999
2011-10-25 07:03:19 51°13.636 2°56.017 122.1 -999 197 -999
2011-10-25 07:03:24 51°13.636 2°56.017 122.2 -999 69 -999
2011-10-25 07:03:29 51°13.637 2°56.017 122.3 -999 98 7.4
2011-10-25 07:03:34 51°13.637 2°56.018 122.5 0.1 123 7.4
2011-10-25 07:03:40 51°13.637 2°56.018 122.7 0.1 106 7.4
2011-10-25 07:03:44 51°13.637 2°56.018 123 -999 131 7.4
2011-10-25 07:03:49 51°13.637 2°56.018 123.3 -999 138 7.4
2011-10-25 07:03:54 51°13.637 2°56.018 123.4 -999 173 7.5
2011-10-25 07:03:59 51°13.637 2°56.018 123.4 0.1 171 7.3
2011-10-25 07:04:04 51°13.637 2°56.018 123.3 0.1 159 7.2
2011-10-25 07:04:08 51°13.637 2°56.018 123.1 0.1 129 7.1
2011-10-25 07:04:13 51°13.637 2°56.018 123 -999 211 7.1
2011-10-25 07:04:18 51°13.637 2°56.018 123.3 0.1 306 7.1
2011-10-25 07:04:23 51°13.637 2°56.018 123.4 -999 266 7.2
2011-10-25 07:04:28 51°13.638 2°56.018 123.4 0.1 33 7.1
2011-10-25 07:04:34 51°13.637 2°56.018 123.4 0.1 183 7
2011-10-25 07:04:37 51°13.638 2°56.018 123.4 -999 82 7.1
2011-10-25 07:04:44 51°13.638 2°56.018 123.4 -999 34 7.1
2011-10-25 07:04:49 51°13.638 2°56.018 122.9 -999 159 7.1
2011-10-25 07:04:53 51°13.638 2°56.018 122 -999 170 7.1
2011-10-25 07:04:58 51°13.638 2°56.018 121.3 -999 164 7.1
2011-10-25 07:05:03 51°13.637 2°56.018 121 0.1 207 7.1
2011-10-25 07:05:08 51°13.637 2°56.018 120.6 -999 182 7.1
2011-10-25 07:05:13 51°13.637 2°56.018 119.9 0.1 194 7.1
2011-10-25 07:05:17 51°13.637 2°56.018 119.3 0.1 193 7.1
2011-10-25 07:05:22 51°13.637 2°56.018 118.5 0.1 196 7.1
2011-10-25 07:05:27 51°13.637 2°56.018 117.7 0.1 192 7.1
2011-10-25 07:05:32 51°13.637 2°56.018 116.9 0.1 195 7.1
2011-10-25 07:05:37 51°13.636 2°56.018 116 0.1 193 7.1
2011-10-25 07:05:41 51°13.636 2°56.018 115.2 0.1 203 7.1
2011-10-25 07:05:46 51°13.636 2°56.018 114.4 0.1 203 7.2
2011-10-25 07:05:51 51°13.636 2°56.018 113.6 -999 211 7.1
2011-10-25 07:05:56 51°13.636 2°56.018 112.9 0.1 195 7.2
2011-10-25 07:06:01 51°13.636 2°56.018 112.3 0.1 186 7.1
2011-10-25 07:06:06 51°13.636 2°56.018 111.5 0.1 193 7.1
2011-10-25 07:06:12 51°13.636 2°56.018 110.7 0.1 203 7.1
2011-10-25 07:06:17 51°13.636 2°56.018 109.9 0.1 199 7.1
2011-10-25 07:06:22 51°13.636 2°56.018 109 0.1 192 7.1
2011-10-25 07:06:26 51°13.635 2°56.018 108.2 0.1 225 7
2011-10-25 07:06:31 51°13.635 2°56.018 107.5 0.2 289 7.1
2011-10-25 07:06:36 51°13.636 2°56.017 106.9 0.3 289 7
2011-10-25 07:06:41 51°13.636 2°56.016 106.4 0.6 296 6.8
2011-10-25 07:06:46 51°13.636 2°56.014 105.7 0.7 293 6.9
2011-10-25 07:06:51 51°13.637 2°56.012 105.2 0.9 290 7.1
2011-10-25 07:06:56 51°13.637 2°56.01 104.7 1 292 7
2011-10-25 07:07:01 51°13.638 2°56.008 104.4 1.2 290 7.1
2011-10-25 07:07:07 51°13.639 2°56.004 104.3 1.4 290 -999
2011-10-25 07:07:12 51°13.639 2°56.001 104.1 1.5 289 -999
2011-10-25 07:07:18 51°13.64 2°55.997 103.9 1.7 289 -999
2011-10-25 07:07:23 51°13.641 2°55.993 103.8 1.8 287 -999
2011-10-25 07:07:29 51°13.642 2°55.988 103.4 2 288 -999
2011-10-25 07:07:34 51°13.643 2°55.984 103.1 2.1 288 -999
2011-10-25 07:07:39 51°13.644 2°55.98 102.4 2 287 -999
2011-10-25 07:07:44 51°13.644 2°55.976 101.8 1.9 283 -999
2011-10-25 07:07:50 51°13.645 2°55.97 100.4 2.1 286 -999
2011-10-25 07:07:55 51°13.646 2°55.965 99.8 2.3 281 -999
2011-10-25 07:08:00 51°13.647 2°55.96 99.5 2.5 284 -999
2011-10-25 07:08:04 51°13.647 2°55.955 99.4 2.5 281 -999
2011-10-25 07:08:09 51°13.648 2°55.95 99.4 2.4 282 -999
2011-10-25 07:08:14 51°13.648 2°55.945 99 2.3 279 -999
2011-10-25 07:08:20 51°13.649 2°55.939 98.4 2 280 -999
2011-10-25 07:08:25 51°13.649 2°55.937 97.9 1.4 282 -999
2011-10-25 07:08:29 51°13.649 2°55.936 98.7 0.7 280 -999
2011-10-25 07:08:34 51°13.649 2°55.935 100.7 0.1 227 -999
2011-10-25 07:08:40 51°13.649 2°55.936 105.2 0.3 97 -999
2011-10-25 07:08:45 51°13.649 2°55.937 109.7 0.3 141 -999
2011-10-25 07:08:49 51°13.649 2°55.937 113.6 0.1 102 -999
2011-10-25 07:08:54 51°13.649 2°55.936 115.7 0.4 295 -999
2011-10-25 07:09:00 51°13.65 2°55.935 118.1 0.7 307 -999
2011-10-25 07:09:05 51°13.65 2°55.933 119.9 1 305 4.8
2011-10-25 07:09:09 51°13.651 2°55.931 121.5 1.2 304 -999
2011-10-25 07:09:14 51°13.652 2°55.929 122.7 1.5 306 11
2011-10-25 07:09:19 51°13.654 2°55.925 123.5 1.7 305 11.5
2011-10-25 07:09:25 51°13.656 2°55.922 124.1 1.9 306 -999
2011-10-25 07:09:29 51°13.657 2°55.918 124.7 2.1 305 -999
2011-10-25 07:09:34 51°13.659 2°55.915 124.9 2.2 307 -999
2011-10-25 07:09:40 51°13.661 2°55.91 125 2.4 305 -999
2011-10-25 07:09:45 51°13.663 2°55.905 125.2 2.6 307 -999
2011-10-25 07:09:50 51°13.665 2°55.9 125.3 2.7 306 -999
2011-10-25 07:09:54 51°13.667 2°55.896 125.5 2.8 307 -999
2011-10-25 07:10:00 51°13.67 2°55.89 125.7 2.9 307 -999
2011-10-25 07:10:04 51°13.672 2°55.886 125.8 3 307 -999
2011-10-25 07:10:10 51°13.675 2°55.879 126.1 3.1 307 -999
2011-10-25 07:10:14 51°13.677 2°55.875 126.4 3.2 307 -999
2011-10-25 07:10:19 51°13.68 2°55.869 126.5 3.3 308 -999
2011-10-25 07:10:24 51°13.683 2°55.863 126.9 3.4 308 -999
2011-10-25 07:10:29 51°13.686 2°55.857 127.3 3.4 308 -999
2011-10-25 07:10:34 51°13.689 2°55.851 127.7 3.4 308 -999
2011-10-25 07:10:39 51°13.692 2°55.845 127.9 3.5 309 -999
2011-10-25 07:10:44 51°13.695 2°55.839 128.3 3.5 309 -999
2011-10-25 07:10:50 51°13.698 2°55.832 128.5 3.5 309 -999
2011-10-25 07:10:55 51°13.701 2°55.826 128.7 3.5 310 -999
2011-10-25 07:10:59 51°13.704 2°55.822 128.9 3.5 310 -999
2011-10-25 07:11:05 51°13.708 2°55.815 129.1 3.5 311 -999
2011-10-25 07:11:10 51°13.711 2°55.809 129.4 3.6 311 -999
2011-10-25 07:11:15 51°13.715 2°55.803 129.6 3.6 312 -999
2011-10-25 07:11:20 51°13.718 2°55.797 129.8 3.7 312 -999
2011-10-25 07:11:25 51°13.721 2°55.791 129.9 3.7 313 -999
2011-10-25 07:11:30 51°13.725 2°55.785 129.9 3.8 312 -999
2011-10-25 07:11:35 51°13.728 2°55.778 129.9 3.8 312 -999
2011-10-25 07:11:39 51°13.731 2°55.774 129.9 3.8 313 -999
2011-10-25 07:11:45 51°13.735 2°55.766 130 3.7 313 -999
2011-10-25 07:11:50 51°13.739 2°55.76 130 3.7 313 -999
2011-10-25 07:11:55 51°13.742 2°55.754 130.1 3.7 313 -999
2011-10-25 07:11:59 51°13.745 2°55.75 130.2 3.6 313 -999
2011-10-25 07:12:04 51°13.748 2°55.744 130.4 3.6 312 -999
2011-10-25 07:12:10 51°13.752 2°55.737 130.4 3.6 312 -999
2011-10-25 07:12:15 51°13.756 2°55.731 130.5 3.6 312 -999
2011-10-25 07:12:19 51°13.758 2°55.726 130.6 3.6 311 -999
2011-10-25 07:12:24 51°13.762 2°55.72 130.7 3.6 311 -999
2011-10-25 07:12:29 51°13.765 2°55.714 131 3.6 311 -999
2011-10-25 07:12:34 51°13.768 2°55.708 131.8 3.6 312 -999
2011-10-25 07:12:39 51°13.772 2°55.702 132.9 3.6 313 -999
2011-10-25 07:12:44 51°13.775 2°55.696 134 3.6 313 -999
2011-10-25 07:12:49 51°13.779 2°55.691 135.2 3.5 314 -999
2011-10-25 07:12:55 51°13.783 2°55.684 136.5 3.5 315 -999
2011-10-25 07:12:59 51°13.786 2°55.68 138 3.6 317 -999
2011-10-25 07:13:04 51°13.789 2°55.675 139.5 3.6 318 -999
2011-10-25 07:13:10 51°13.794 2°55.669 141.5 3.5 320 -999
2011-10-25 07:13:15 51°13.798 2°55.664 143.4 3.5 322 -999
2011-10-25 07:13:20 51°13.802 2°55.659 145.4 3.5 324 -999
2011-10-25 07:13:24 51°13.805 2°55.656 147.4 3.5 326 -999
2011-10-25 07:13:29 51°13.809 2°55.652 149.6 3.5 329 -999
2011-10-25 07:13:34 51°13.813 2°55.648 151.9 3.6 330 -999
2011-10-25 07:13:39 51°13.818 2°55.644 154 3.6 333 -999
2011-10-25 07:13:44 51°13.822 2°55.641 156.1 3.7 334 -999
2011-10-25 07:13:49 51°13.827 2°55.637 157.6 3.7 336 -999
2011-10-25 07:13:54 51°13.832 2°55.634 159.3 3.7 337 -999
2011-10-25 07:13:59 51°13.836 2°55.631 161.2 3.7 340 -999
2011-10-25 07:14:04 51°13.841 2°55.629 163.2 3.7 341 -999
2011-10-25 07:14:09 51°13.846 2°55.626 165.3 3.7 344 -999
2011-10-25 07:14:14 51°13.851 2°55.624 167.6 3.7 345 -999
2011-10-25 07:14:19 51°13.856 2°55.622 169.8 3.6 347 -999
2011-10-25 07:14:24 51°13.861 2°55.621 172 3.6 349 -999
2011-10-25 07:14:29 51°13.866 2°55.62 174.3 3.6 351 -999
2011-10-25 07:14:34 51°13.87 2°55.619 176.9 3.5 354 -999
2011-10-25 07:14:39 51°13.875 2°55.618 179.4 3.5 356 -999
2011-10-25 07:14:44 51°13.88 2°55.618 182.3 3.5 359 -999
2011-10-25 07:14:48 51°13.884 2°55.618 185.2 3.5 1 -999
2011-10-25 07:14:55 51°13.891 2°55.618 188.1 3.4 5 -999
2011-10-25 07:15:00 51°13.895 2°55.619 191.2 3.4 7 -999
2011-10-25 07:15:05 51°13.9 2°55.621 194.2 3.4 10 -999
2011-10-25 07:15:09 51°13.903 2°55.623 197.2 3.4 13 -999
2011-10-25 07:15:14 51°13.908 2°55.625 200.2 3.4 17 -999
2011-10-25 07:15:20 51°13.913 2°55.628 203.2 3.4 19 -999
2011-10-25 07:15:25 51°13.917 2°55.631 206 3.3 22 -999
2011-10-25 07:15:29 51°13.921 2°55.633 208.8 3.3 25 -999
2011-10-25 07:15:34 51°13.925 2°55.636 211.5 3.3 28 -999
2011-10-25 07:15:39 51°13.929 2°55.64 214.2 3.3 31 -999
2011-10-25 07:15:45 51°13.933 2°55.645 217 3.3 34 -999
2011-10-25 07:15:49 51°13.936 2°55.648 219.8 3.3 36 -999
2011-10-25 07:15:54 51°13.94 2°55.653 222.8 3.3 39 -999
2011-10-25 07:15:59 51°13.943 2°55.657 225.7 3.3 42 -999
2011-10-25 07:16:05 51°13.947 2°55.664 228.7 3.2 46 -999
2011-10-25 07:16:09 51°13.949 2°55.667 231.6 3 48 -999
2011-10-25 07:16:15 51°13.952 2°55.673 234.4 2.9 50 -999
2011-10-25 07:16:19 51°13.954 2°55.677 236.5 2.7 51 -999
2011-10-25 07:16:24 51°13.956 2°55.681 238.3 2.4 54 -999
2011-10-25 07:16:29 51°13.958 2°55.685 240.4 2.2 54 -999
2011-10-25 07:16:34 51°13.959 2°55.688 242.2 1.6 54 11.1
2011-10-25 07:16:39 51°13.96 2°55.69 244 1.2 50 11.1
2011-10-25 07:16:44 51°13.961 2°55.691 246.2 0.7 40 11
2011-10-25 07:16:49 51°13.961 2°55.691 249.8 0.4 354 11
2011-10-25 07:16:54 51°13.962 2°55.69 254.3 0.6 303 11
2011-10-25 07:16:59 51°13.962 2°55.688 258.6 1 290 11
2011-10-25 07:17:03 51°13.963 2°55.686 265.8 1.4 287 11
2011-10-25 07:17:08 51°13.964 2°55.682 271.2 1.8 290 11.1
2011-10-25 07:17:13 51°13.965 2°55.678 279.2 2.1 290 11.1
2011-10-25 07:17:18 51°13.966 2°55.674 284.9 2.1 294 11.1
2011-10-25 07:17:23 51°13.967 2°55.669 288.9 2.3 297 11.2
2011-10-25 07:17:28 51°13.969 2°55.664 292.7 2.7 297 11.4
2011-10-25 07:17:34 51°13.971 2°55.656 295.5 3.3 300 11.1
2011-10-25 07:17:38 51°13.974 2°55.65 297.7 3.8 299 11.5
2011-10-25 07:17:43 51°13.977 2°55.641 298.6 4.4 302 11
2011-10-25 07:17:48 51°13.98 2°55.632 299.5 4.9 301 11.1
2011-10-25 07:17:53 51°13.984 2°55.622 300.6 5.4 305 10.9
2011-10-25 07:17:58 51°13.989 2°55.611 302.2 5.7 305 11
2011-10-25 07:18:02 51°13.993 2°55.603 304.3 6 308 11
2011-10-25 07:18:07 51°13.999 2°55.592 306 6.3 310 11
2011-10-25 07:18:12 51°14.005 2°55.581 308.4 6.5 312 11.1
2011-10-25 07:18:17 51°14.012 2°55.571 311.2 6.7 314 11.1
2011-10-25 07:18:22 51°14.019 2°55.56 314.4 6.9 316 11
2011-10-25 07:18:27 51°14.026 2°55.55 316.3 7.1 318 11.2
2011-10-25 07:18:31 51°14.032 2°55.541 317.3 7.3 319 11.2
2011-10-25 07:18:38 51°14.043 2°55.527 318.9 7.4 322 11.1
2011-10-25 07:18:41 51°14.048 2°55.521 321.4 7.5 323 11.1
2011-10-25 07:18:46 51°14.057 2°55.512 323.5 7.6 324 10.9
2011-10-25 07:18:52 51°14.067 2°55.5 324.1 7.7 324 10.9
2011-10-25 07:18:57 51°14.076 2°55.49 324.8 7.7 326 10.9
2011-10-25 07:19:02 51°14.085 2°55.481 326.2 7.8 326 10.9
2011-10-25 07:19:07 51°14.094 2°55.471 326.7 7.8 326 10.9
2011-10-25 07:19:12 51°14.103 2°55.461 326.1 7.9 325 10.8
2011-10-25 07:19:18 51°14.114 2°55.449 325.7 8 326 10.8
2011-10-25 07:19:23 51°14.124 2°55.439 325.9 8 327 10.8
2011-10-25 07:19:28 51°14.133 2°55.43 326.6 8 326 -999
2011-10-25 07:19:32 51°14.14 2°55.422 326.7 8.1 326 -999
2011-10-25 07:19:38 51°14.152 2°55.41 326.7 8.1 327 10.7
2011-10-25 07:19:44 51°14.163 2°55.398 326.9 8.1 327 10.7
2011-10-25 07:19:48 51°14.171 2°55.391 327.1 8.1 327 10.8
2011-10-25 07:19:53 51°14.181 2°55.381 327.4 8.1 327 -999
2011-10-25 07:19:59 51°14.192 2°55.369 327.7 8.1 329 10.8
2011-10-25 07:20:04 51°14.202 2°55.361 328.8 8.1 330 -999
2011-10-25 07:20:09 51°14.212 2°55.352 330.3 8.1 330 -999
2011-10-25 07:20:15 51°14.224 2°55.341 330.4 8.1 330 -999
2011-10-25 07:20:20 51°14.233 2°55.332 330.6 8.1 331 10.8
2011-10-25 07:20:25 51°14.243 2°55.324 331.3 8.1 331 -999
2011-10-25 07:20:29 51°14.251 2°55.317 331.4 8.1 331 10.9
2011-10-25 07:20:34 51°14.261 2°55.308 330.9 8.1 330 -999
2011-10-25 07:20:39 51°14.27 2°55.299 330 8.2 331 11
2011-10-25 07:20:44 51°14.28 2°55.29 329.9 8.4 330 -999
2011-10-25 07:20:49 51°14.291 2°55.281 330.2 8.6 331 11.1
2011-10-25 07:20:54 51°14.301 2°55.271 330.5 8.8 330 -999
2011-10-25 07:21:00 51°14.314 2°55.259 329.8 8.9 330 -999
2011-10-25 07:21:05 51°14.325 2°55.249 329.5 9 329 -999
2011-10-25 07:21:10 51°14.336 2°55.239 329.3 9.1 330 10.5
2011-10-25 07:21:14 51°14.345 2°55.23 329.2 9.2 329 -999
2011-10-25 07:21:19 51°14.356 2°55.219 328.9 9.4 329 11
2011-10-25 07:21:24 51°14.367 2°55.208 328.4 9.4 328 10.8
2011-10-25 07:21:29 51°14.378 2°55.197 328.4 9.5 328 10.9
2011-10-25 07:21:35 51°14.392 2°55.184 328.3 9.5 327 11
2011-10-25 07:21:39 51°14.401 2°55.175 327.8 9.5 328 10.6
2011-10-25 07:21:44 51°14.412 2°55.164 328.2 9.6 329 11
2011-10-25 07:21:49 51°14.423 2°55.153 328.9 9.6 328 10.9
2011-10-25 07:21:54 51°14.435 2°55.142 328.9 9.6 329 11
2011-10-25 07:21:59 51°14.446 2°55.131 329.1 9.6 328 -999
2011-10-25 07:22:04 51°14.457 2°55.119 328.9 9.7 328 11
2011-10-25 07:22:09 51°14.469 2°55.108 328.7 9.7 328 10.6
2011-10-25 07:22:13 51°14.478 2°55.099 328.4 9.7 328 11.2
2011-10-25 07:22:19 51°14.492 2°55.085 328.1 9.7 328 11.4
2011-10-25 07:22:23 51°14.501 2°55.076 328 9.8 328 11.4
2011-10-25 07:22:28 51°14.512 2°55.064 328 10 327 11.2
2011-10-25 07:22:34 51°14.526 2°55.048 327.4 10.1 324 11.5
2011-10-25 07:22:38 51°14.535 2°55.037 325.6 10.3 323 11.5
2011-10-25 07:22:44 51°14.548 2°55.02 324.4 10.4 321 11.8
2011-10-25 07:22:48 51°14.557 2°55.008 323.9 10.4 320 11.9
2011-10-25 07:22:53 51°14.568 2°54.991 321.8 10.5 315 11.9
2011-10-25 07:22:58 51°14.577 2°54.973 317.8 10.6 312 11.9
2011-10-25 07:23:03 51°14.586 2°54.954 314.2 10.7 308 11.9
2011-10-25 07:23:08 51°14.595 2°54.935 310.8 10.8 305 11.5
2011-10-25 07:23:12 51°14.601 2°54.919 308 10.9 304 11.8
2011-10-25 07:23:17 51°14.609 2°54.898 305.7 10.9 300 11.7
2011-10-25 07:23:22 51°14.616 2°54.876 302.7 11 298 11.5
2011-10-25 07:23:27 51°14.622 2°54.854 299.7 11 295 11.5
2011-10-25 07:23:32 51°14.628 2°54.831 296.5 11.1 292 11.5
2011-10-25 07:23:37 51°14.632 2°54.808 292.7 11 287 11.3
2011-10-25 07:23:41 51°14.634 2°54.789 288.1 11 282 11.4
2011-10-25 07:23:46 51°14.636 2°54.765 283.2 11 278 11.3
2011-10-25 07:23:52 51°14.637 2°54.736 278.1 10.9 273 11.3
2011-10-25 07:23:56 51°14.636 2°54.717 273.1 10.9 268 11.3
2011-10-25 07:24:01 51°14.634 2°54.693 268 10.9 263 11.1
2011-10-25 07:24:06 51°14.631 2°54.669 262.8 10.9 259 11
2011-10-25 07:24:11 51°14.627 2°54.647 257.9 10.8 254 10.2
2011-10-25 07:24:16 51°14.622 2°54.624 252.8 10.9 249 10.2
2011-10-25 07:24:20 51°14.617 2°54.606 248.2 10.9 246 10
2011-10-25 07:24:25 51°14.61 2°54.585 244.7 11 244 10.4
2011-10-25 07:24:30 51°14.603 2°54.563 242.3 11.1 242 10.3
2011-10-25 07:24:36 51°14.594 2°54.537 240.7 11.2 241 9.8
2011-10-25 07:24:40 51°14.588 2°54.52 239.2 11.2 240 10.1
2011-10-25 07:24:46 51°14.578 2°54.494 238.3 11.3 239 10.2
2011-10-25 07:24:51 51°14.57 2°54.473 238.1 11.3 240 10.2
2011-10-25 07:24:56 51°14.562 2°54.451 238.1 11.4 239 10
2011-10-25 07:25:01 51°14.554 2°54.429 238.2 11.4 240 10.1
2011-10-25 07:25:06 51°14.547 2°54.407 239.1 11.4 241 10
2011-10-25 07:25:11 51°14.539 2°54.385 239.6 11.5 241 9.9
2011-10-25 07:25:16 51°14.531 2°54.362 240.1 11.6 241 9.8
2011-10-25 07:25:22 51°14.521 2°54.335 240.1 11.8 241 9.9
2011-10-25 07:25:25 51°14.516 2°54.321 239.6 12 239 9.8
2011-10-25 07:25:31 51°14.506 2°54.294 238.1 12.1 238 9.7
2011-10-25 07:25:35 51°14.499 2°54.276 236.7 12.3 238 9.7
2011-10-25 07:25:41 51°14.488 2°54.247 237 12.4 239 9.7
2011-10-25 07:25:46 51°14.479 2°54.224 237.5 12.4 239 9.6
2011-10-25 07:25:51 51°14.47 2°54.2 237.8 12.5 240 9.5
2011-10-25 07:25:56 51°14.462 2°54.176 239.1 12.5 241 9.5
2011-10-25 07:26:01 51°14.454 2°54.151 240 12.6 242 9.5
2011-10-25 07:26:06 51°14.445 2°54.127 240.7 12.6 242 9.5
2011-10-25 07:26:11 51°14.437 2°54.102 241.3 12.7 242 9.5
2011-10-25 07:26:16 51°14.429 2°54.077 241.4 12.6 242 9.5
2011-10-25 07:26:21 51°14.421 2°54.052 241.7 12.6 243 9.5
2011-10-25 07:26:26 51°14.413 2°54.028 241.7 12.7 241 9.5
2011-10-25 07:26:30 51°14.406 2°54.008 240.5 12.7 240 9.4
2011-10-25 07:26:36 51°14.395 2°53.979 238.9 12.7 240 9.5
2011-10-25 07:26:40 51°14.388 2°53.96 238.7 12.7 239 9.5
2011-10-25 07:26:46 51°14.377 2°53.931 237.8 12.7 239 9.5
2011-10-25 07:26:50 51°14.37 2°53.912 238.1 12.7 239 9.4
2011-10-25 07:26:55 51°14.36 2°53.888 237.4 12.7 238 9.4
2011-10-25 07:27:00 51°14.351 2°53.864 237.4 12.7 237 9.5
2011-10-25 07:27:06 51°14.34 2°53.835 237.3 12.7 239 9.5
2011-10-25 07:27:11 51°14.33 2°53.812 237.4 12.7 238 9.4
2011-10-25 07:27:16 51°14.321 2°53.788 236.6 12.7 237 9.5
2011-10-25 07:27:21 51°14.311 2°53.766 235.5 12.7 235 9.3
2011-10-25 07:27:26 51°14.3 2°53.742 233.4 12.7 236 9.5
2011-10-25 07:27:31 51°14.29 2°53.72 233.8 12.7 235 9.4
2011-10-25 07:27:36 51°14.28 2°53.697 232.9 12.7 233 9.5
2011-10-25 07:27:41 51°14.27 2°53.674 232.2 12.6 235 9.4
2011-10-25 07:27:46 51°14.258 2°53.652 232.1 12.7 232 9.5
2011-10-25 07:27:51 51°14.248 2°53.629 231.3 12.7 234 9.5
2011-10-25 07:27:56 51°14.238 2°53.607 231.8 12.7 233 9.5
2011-10-25 07:28:01 51°14.227 2°53.585 231.5 12.7 233 9.5
2011-10-25 07:28:06 51°14.217 2°53.562 231.8 12.7 234 9.6
2011-10-25 07:28:11 51°14.206 2°53.539 232.1 12.7 233 9.6
2011-10-25 07:28:16 51°14.196 2°53.516 232.4 12.7 235 9.6
2011-10-25 07:28:21 51°14.186 2°53.493 234.1 12.7 237 9.6
2011-10-25 07:28:26 51°14.177 2°53.469 235.8 12.8 238 9.6
2011-10-25 07:28:31 51°14.168 2°53.444 237.4 12.8 240 9.7
2011-10-25 07:28:35 51°14.161 2°53.425 239.1 12.7 241 9.6
2011-10-25 07:28:40 51°14.153 2°53.4 240.4 12.7 243 9.7
2011-10-25 07:28:46 51°14.143 2°53.37 241.8 12.7 243 9.6
2011-10-25 07:28:52 51°14.134 2°53.34 242.3 12.8 243 9.7
2011-10-25 07:28:56 51°14.127 2°53.319 242.2 12.8 243 9.8
2011-10-25 07:29:01 51°14.119 2°53.294 242.4 12.8 243 9.8
2011-10-25 07:29:06 51°14.111 2°53.27 241.9 12.7 242 9.7
2011-10-25 07:29:11 51°14.103 2°53.245 241.4 12.7 242 9.7
2011-10-25 07:29:16 51°14.094 2°53.22 240.4 12.8 240 9.9
2011-10-25 07:29:21 51°14.085 2°53.195 240.5 12.8 242 9.8
2011-10-25 07:29:26 51°14.076 2°53.171 239.3 12.8 239 9.8
2011-10-25 07:29:31 51°14.067 2°53.147 238.9 12.8 240 9.8
2011-10-25 07:29:36 51°14.058 2°53.123 238.5 12.8 238 10
2011-10-25 07:29:41 51°14.049 2°53.098 238.4 12.8 239 9.9
2011-10-25 07:29:46 51°14.039 2°53.075 237 12.7 236 9.9
2011-10-25 07:29:51 51°14.029 2°53.052 235.2 12.8 235 9.9
2011-10-25 07:29:56 51°14.019 2°53.028 234.5 12.8 236 9.9
2011-10-25 07:30:01 51°14.008 2°53.006 234 12.8 234 10
2011-10-25 07:30:06 51°13.998 2°52.982 233.2 12.8 235 10
2011-10-25 07:30:11 51°13.988 2°52.96 233.4 12.8 234 9.9
2011-10-25 07:30:16 51°13.978 2°52.937 233.3 12.8 234 10
2011-10-25 07:30:21 51°13.967 2°52.914 233.1 12.7 234 10
2011-10-25 07:30:26 51°13.957 2°52.891 233 12.7 234 10.1
2011-10-25 07:30:31 51°13.947 2°52.868 233 12.8 234 9.9
2011-10-25 07:30:36 51°13.936 2°52.845 232.8 12.8 234 10.1
2011-10-25 07:30:41 51°13.926 2°52.822 233.1 12.7 236 10
2011-10-25 07:30:46 51°13.916 2°52.799 233.6 12.7 235 10
2011-10-25 07:30:51 51°13.906 2°52.776 234.5 12.8 235 10
2011-10-25 07:30:56 51°13.896 2°52.752 234.3 12.8 235 10
2011-10-25 07:31:01 51°13.886 2°52.729 234.5 12.8 236 10.1
2011-10-25 07:31:06 51°13.876 2°52.706 234.2 12.8 234 10
2011-10-25 07:31:11 51°13.866 2°52.683 233.5 12.8 236 10.1
2011-10-25 07:31:16 51°13.856 2°52.659 234.4 12.8 236 10.1
2011-10-25 07:31:21 51°13.847 2°52.635 235.2 12.8 237 10.1
2011-10-25 07:31:26 51°13.837 2°52.611 236 12.8 237 10.2
2011-10-25 07:31:31 51°13.827 2°52.587 236.1 12.8 237 10.2
2011-10-25 07:31:36 51°13.818 2°52.564 236 12.8 237 10.1
2011-10-25 07:31:41 51°13.808 2°52.54 235.6 12.8 237 10.2
2011-10-25 07:31:46 51°13.798 2°52.516 235.9 12.8 237 10.2
2011-10-25 07:31:51 51°13.789 2°52.492 236 12.8 238 10.2
2011-10-25 07:31:56 51°13.779 2°52.468 236.8 12.8 238 10.2
2011-10-25 07:32:01 51°13.77 2°52.444 236.8 12.8 238 10.3
2011-10-25 07:32:06 51°13.761 2°52.42 236.9 12.8 238 10.4
2011-10-25 07:32:11 51°13.751 2°52.397 236.7 12.7 237 10.2
2011-10-25 07:32:16 51°13.741 2°52.373 236 12.8 236 10.3
2011-10-25 07:32:21 51°13.732 2°52.349 235.8 12.8 238 10.2
2011-10-25 07:32:26 51°13.722 2°52.326 235.8 12.8 237 10.3
2011-10-25 07:32:31 51°13.713 2°52.302 235.9 12.8 238 10.3
2011-10-25 07:32:36 51°13.703 2°52.278 236.4 12.8 238 10.3
2011-10-25 07:32:41 51°13.694 2°52.254 236.8 12.8 238 10.3
2011-10-25 07:32:45 51°13.686 2°52.235 237.1 12.8 239 10.3
2011-10-25 07:32:51 51°13.675 2°52.205 237.8 12.8 239 10.3
2011-10-25 07:32:56 51°13.666 2°52.181 238.1 12.9 240 10.4
2011-10-25 07:33:01 51°13.658 2°52.156 238.8 12.8 241 10.4
2011-10-25 07:33:05 51°13.651 2°52.136 239.4 12.8 240 10.4
2011-10-25 07:33:11 51°13.64 2°52.107 239.4 12.8 241 10.5
2011-10-25 07:33:16 51°13.631 2°52.082 239.8 12.8 240 10.4
2011-10-25 07:33:21 51°13.623 2°52.057 239.6 12.9 241 10.4
2011-10-25 07:33:26 51°13.614 2°52.032 240.3 12.8 240 10.4
2011-10-25 07:33:30 51°13.607 2°52.013 239.9 12.8 241 10.6
2011-10-25 07:33:36 51°13.597 2°51.983 240.1 12.8 241 10.5
2011-10-25 07:33:41 51°13.588 2°51.958 240.2 12.8 241 10.6
2011-10-25 07:33:46 51°13.58 2°51.933 240.1 12.8 242 10.6
2011-10-25 07:33:51 51°13.571 2°51.908 240.4 12.8 241 10.6
2011-10-25 07:33:55 51°13.564 2°51.888 240.2 12.8 241 10.7
2011-10-25 07:34:01 51°13.554 2°51.859 240.1 12.8 241 10.5
2011-10-25 07:34:06 51°13.545 2°51.834 239.7 12.8 240 10.7
2011-10-25 07:34:11 51°13.536 2°51.81 239.3 12.8 240 10.6
2011-10-25 07:34:16 51°13.527 2°51.785 238.9 12.8 239 10.7
2011-10-25 07:34:21 51°13.518 2°51.761 238.5 12.8 240 10.7
2011-10-25 07:34:26 51°13.509 2°51.736 238.7 12.8 240 10.7
2011-10-25 07:34:31 51°13.501 2°51.711 240.1 12.8 242 10.6
2011-10-25 07:34:35 51°13.494 2°51.691 241.1 12.8 242 10.6
2011-10-25 07:34:41 51°13.485 2°51.661 241.5 12.8 244 10.7
2011-10-25 07:34:46 51°13.476 2°51.636 242.7 12.8 243 10.6
2011-10-25 07:34:52 51°13.467 2°51.605 242.5 12.8 242 10.7
2011-10-25 07:34:56 51°13.46 2°51.585 241.8 12.8 242 10.7
2011-10-25 07:35:01 51°13.452 2°51.56 242.1 12.8 243 10.8
2011-10-25 07:35:06 51°13.444 2°51.535 242.3 12.8 243 10.7
2011-10-25 07:35:11 51°13.436 2°51.51 242.1 12.8 243 10.8
2011-10-25 07:35:16 51°13.427 2°51.485 242.1 12.8 242 10.8
2011-10-25 07:35:20 51°13.421 2°51.464 241.8 12.8 243 10.8
2011-10-25 07:35:26 51°13.411 2°51.435 241.7 12.8 242 11
2011-10-25 07:35:32 51°13.401 2°51.404 241.6 12.8 242 10.9
2011-10-25 07:35:36 51°13.394 2°51.384 241.2 12.8 241 11.1
2011-10-25 07:35:41 51°13.386 2°51.359 241.9 12.8 243 10.9
2011-10-25 07:35:46 51°13.377 2°51.334 242 12.8 241 11
2011-10-25 07:35:51 51°13.369 2°51.309 241.5 12.8 243 10.9
2011-10-25 07:35:56 51°13.361 2°51.285 241.2 12.8 240 11.1
2011-10-25 07:36:01 51°13.352 2°51.26 240.6 12.8 242 11
2011-10-25 07:36:06 51°13.343 2°51.235 240 12.8 240 11
2011-10-25 07:36:11 51°13.335 2°51.211 239.6 12.8 241 11.1
2011-10-25 07:36:16 51°13.326 2°51.186 239.6 12.8 240 10.9
2011-10-25 07:36:21 51°13.317 2°51.161 239.3 12.8 242 11
2011-10-25 07:36:26 51°13.308 2°51.137 240 12.8 240 10.9
2011-10-25 07:36:31 51°13.299 2°51.113 239.1 12.8 240 11.3
2011-10-25 07:36:36 51°13.29 2°51.088 239.5 12.8 240 11
2011-10-25 07:36:41 51°13.281 2°51.064 239.2 12.8 239 11.1
2011-10-25 07:36:46 51°13.272 2°51.039 238.6 12.8 240 11.1
2011-10-25 07:36:51 51°13.263 2°51.015 238.7 12.8 239 11.1
2011-10-25 07:36:56 51°13.254 2°50.991 238.4 12.8 240 11
2011-10-25 07:37:01 51°13.245 2°50.966 238.7 12.8 239 11
2011-10-25 07:37:06 51°13.236 2°50.942 238.4 12.8 240 11.1
2011-10-25 07:37:11 51°13.227 2°50.918 238.8 12.8 240 11
2011-10-25 07:37:16 51°13.218 2°50.893 239.1 12.9 240 11.1
2011-10-25 07:37:21 51°13.21 2°50.868 239.1 12.7 241 11.1
2011-10-25 07:37:26 51°13.2 2°50.844 239.3 12.8 239 11.1
2011-10-25 07:37:31 51°13.192 2°50.82 238.9 12.8 240 11.1
2011-10-25 07:37:36 51°13.183 2°50.796 238.8 12.8 239 11
2011-10-25 07:37:41 51°13.174 2°50.771 238.8 12.8 240 11.2
2011-10-25 07:37:46 51°13.165 2°50.747 238.8 12.7 239 11.1
2011-10-25 07:37:51 51°13.155 2°50.723 238.8 12.8 239 11.2
2011-10-25 07:37:56 51°13.146 2°50.699 238.4 12.7 239 11.1
2011-10-25 07:38:01 51°13.137 2°50.675 238.2 12.8 238 11.2
2011-10-25 07:38:06 51°13.128 2°50.65 237.8 12.7 239 11.1
2011-10-25 07:38:10 51°13.12 2°50.631 237.9 12.8 238 11.2
2011-10-25 07:38:16 51°13.109 2°50.603 237.4 12.8 239 11.3
2011-10-25 07:38:22 51°13.098 2°50.574 237.4 12.8 237 11.2
2011-10-25 07:38:26 51°13.09 2°50.555 236.9 12.8 238 11.2
2011-10-25 07:38:31 51°13.081 2°50.532 236.6 12.7 237 11.2
2011-10-25 07:38:36 51°13.071 2°50.508 236 12.7 236 11.2
2011-10-25 07:38:41 51°13.061 2°50.485 235.5 12.7 236 11.3
2011-10-25 07:38:46 51°13.051 2°50.462 235.1 12.7 235 11.3
2011-10-25 07:38:50 51°13.043 2°50.443 234.6 12.7 236 11.2
2011-10-25 07:38:56 51°13.031 2°50.415 234.6 12.8 235 11.3
2011-10-25 07:39:01 51°13.021 2°50.392 234.6 12.8 236 11.3
2011-10-25 07:39:06 51°13.011 2°50.369 234.8 12.7 236 11.2
2011-10-25 07:39:10 51°13.003 2°50.35 235 12.7 236 11.2
2011-10-25 07:39:15 51°12.993 2°50.327 235.1 12.8 236 11.4
2011-10-25 07:39:20 51°12.984 2°50.303 235.6 12.7 238 11.3
2011-10-25 07:39:26 51°12.972 2°50.274 236.4 12.7 237 11.3
2011-10-25 07:39:30 51°12.965 2°50.255 236.4 12.8 238 11.3
2011-10-25 07:39:35 51°12.955 2°50.232 236.7 12.7 238 11.3
2011-10-25 07:39:41 51°12.944 2°50.203 236.9 12.8 238 11.5
2011-10-25 07:39:46 51°12.935 2°50.179 237.4 12.7 239 11.3
2011-10-25 07:39:51 51°12.926 2°50.155 238 12.7 239 11.4
2011-10-25 07:39:55 51°12.919 2°50.135 238.3 12.8 240 11.4
2011-10-25 07:40:00 51°12.91 2°50.111 238.8 12.7 239 11.4
2011-10-25 07:40:06 51°12.899 2°50.082 238.1 12.7 238 11.2
2011-10-25 07:40:11 51°12.888 2°50.059 236 12.7 236 11.3
2011-10-25 07:40:16 51°12.879 2°50.036 235.5 12.7 237 11.4
2011-10-25 07:40:21 51°12.869 2°50.013 234.8 12.7 235 11.3
2011-10-25 07:40:26 51°12.859 2°49.99 234.2 12.7 236 11.5
2011-10-25 07:40:31 51°12.849 2°49.967 234.2 12.6 235 11.4
2011-10-25 07:40:36 51°12.839 2°49.944 234.2 12.7 235 11.4
2011-10-25 07:40:41 51°12.828 2°49.921 233.8 12.7 235 11.4
2011-10-25 07:40:46 51°12.819 2°49.898 234 12.7 235 11.3
2011-10-25 07:40:51 51°12.809 2°49.875 234 12.7 236 11.4
2011-10-25 07:40:56 51°12.799 2°49.852 234.5 12.7 236 11.3
2011-10-25 07:41:00 51°12.791 2°49.834 234.5 12.7 236 11.4
2011-10-25 07:41:06 51°12.779 2°49.805 234.6 12.6 237 11.5
2011-10-25 07:41:11 51°12.769 2°49.782 235.6 12.7 236 11.5
2011-10-25 07:41:16 51°12.76 2°49.758 235.4 12.7 238 11.5
2011-10-25 07:41:20 51°12.753 2°49.739 236.3 12.7 237 11.5
2011-10-25 07:41:26 51°12.741 2°49.711 236.2 12.7 238 11.6
2011-10-25 07:41:31 51°12.732 2°49.687 236.6 12.7 237 11.4
2011-10-25 07:41:36 51°12.722 2°49.664 236.2 12.7 238 11.5
2011-10-25 07:41:40 51°12.715 2°49.644 236.6 12.7 238 11.5
2011-10-25 07:41:46 51°12.703 2°49.616 236.7 12.7 238 11.4
2011-10-25 07:41:51 51°12.694 2°49.592 236.6 12.7 238 11.5
2011-10-25 07:41:56 51°12.685 2°49.569 236.7 12.7 238 11.6
2011-10-25 07:42:00 51°12.677 2°49.55 236.7 12.7 238 11.5
2011-10-25 07:42:06 51°12.666 2°49.521 236.8 12.7 238 11.6
2011-10-25 07:42:11 51°12.657 2°49.497 237.4 12.7 238 11.5
2011-10-25 07:42:16 51°12.648 2°49.473 237.4 12.7 240 11.6
2011-10-25 07:42:20 51°12.641 2°49.454 238.1 12.6 238 11.7
2011-10-25 07:42:25 51°12.631 2°49.431 237.7 12.7 239 11.6
2011-10-25 07:42:30 51°12.622 2°49.407 237.4 12.7 238 11.7
2011-10-25 07:42:36 51°12.611 2°49.378 237.4 12.6 239 11.6
2011-10-25 07:42:40 51°12.603 2°49.359 237.4 12.7 237 11.7
2011-10-25 07:42:46 51°12.593 2°49.331 237.3 12.7 240 11.7
2011-10-25 07:42:51 51°12.583 2°49.307 237.8 12.7 239 11.7
2011-10-25 07:42:56 51°12.575 2°49.283 238.2 12.7 240 11.7
2011-10-25 07:43:00 51°12.568 2°49.263 238.9 12.7 240 11.6
2011-10-25 07:43:06 51°12.558 2°49.234 239.5 12.7 242 11.7
2011-10-25 07:43:11 51°12.549 2°49.209 241.2 12.7 243 11.8
2011-10-25 07:43:16 51°12.542 2°49.184 242.5 12.7 244 11.7
2011-10-25 07:43:20 51°12.536 2°49.163 243.8 12.7 245 11.7
2011-10-25 07:43:26 51°12.527 2°49.132 244.2 12.7 245 11.7
2011-10-25 07:43:31 51°12.52 2°49.107 244.7 12.7 246 11.8
2011-10-25 07:43:36 51°12.513 2°49.081 245 12.8 245 11.8
2011-10-25 07:43:40 51°12.507 2°49.06 244.7 12.7 245 11.9
2011-10-25 07:43:46 51°12.498 2°49.03 244.2 12.7 244 11.8
2011-10-25 07:43:51 51°12.49 2°49.005 243.6 12.7 245 11.7
2011-10-25 07:43:56 51°12.482 2°48.98 243.8 12.7 244 12
2011-10-25 07:44:00 51°12.476 2°48.96 243.5 12.7 244 11.9
2011-10-25 07:44:06 51°12.466 2°48.93 243.3 12.7 243 12
2011-10-25 07:44:11 51°12.459 2°48.904 243.3 12.7 245 11.9
2011-10-25 07:44:16 51°12.451 2°48.879 243.3 12.7 242 11.8
2011-10-25 07:44:20 51°12.444 2°48.86 242.3 12.7 244 11.8
2011-10-25 07:44:26 51°12.435 2°48.83 242.4 12.7 242 12
2011-10-25 07:44:31 51°12.427 2°48.805 241.8 12.7 244 11.8
2011-10-25 07:44:36 51°12.418 2°48.78 241.9 12.7 242 11.8
2011-10-25 07:44:40 51°12.412 2°48.76 241.8 12.7 243 11.9
2011-10-25 07:44:46 51°12.402 2°48.73 242 12.6 242 12
2011-10-25 07:44:51 51°12.394 2°48.706 241.2 12.7 241 11.9
2011-10-25 07:44:56 51°12.385 2°48.681 240.6 12.7 242 11.9
2011-10-25 07:45:00 51°12.379 2°48.661 241.1 12.7 242 11.9
2011-10-25 07:45:06 51°12.369 2°48.631 241.1 12.7 241 11.9
2011-10-25 07:45:11 51°12.36 2°48.607 240.8 12.7 242 12
2011-10-25 07:45:16 51°12.352 2°48.582 240.9 12.7 241 12
2011-10-25 07:45:21 51°12.344 2°48.557 240.7 12.7 242 11.9
2011-10-25 07:45:26 51°12.335 2°48.533 240.6 12.7 241 12
2011-10-25 07:45:31 51°12.327 2°48.508 240.3 12.7 241 12.1
2011-10-25 07:45:36 51°12.318 2°48.484 240.3 12.7 241 12
2011-10-25 07:45:40 51°12.311 2°48.464 240.2 12.7 241 12
2011-10-25 07:45:46 51°12.301 2°48.435 240.3 12.7 241 12
2011-10-25 07:45:51 51°12.293 2°48.41 240.4 12.7 242 12
2011-10-25 07:45:56 51°12.284 2°48.385 240.6 12.7 241 12
2011-10-25 07:46:00 51°12.277 2°48.366 240.3 12.7 240 12
2011-10-25 07:46:06 51°12.267 2°48.337 239.7 12.7 240 12
2011-10-25 07:46:11 51°12.257 2°48.313 239.5 12.6 238 12.1
2011-10-25 07:46:16 51°12.248 2°48.289 237.6 12.6 238 12.2
2011-10-25 07:46:20 51°12.24 2°48.271 236.5 12.6 236 12.1
2011-10-25 07:46:26 51°12.228 2°48.243 234.7 12.6 236 12
2011-10-25 07:46:31 51°12.219 2°48.221 234.2 12.6 235 11.9
2011-10-25 07:46:36 51°12.208 2°48.198 234.1 12.6 235 11.9
2011-10-25 07:46:40 51°12.201 2°48.18 233.8 12.5 235 12
2011-10-25 07:46:46 51°12.188 2°48.152 233.7 12.7 235 12.1
2011-10-25 07:46:51 51°12.179 2°48.129 235.1 12.6 238 11.9
2011-10-25 07:46:56 51°12.17 2°48.105 236 12.5 237 11.9
2011-10-25 07:47:00 51°12.162 2°48.086 236 12.7 238 11.9
2011-10-25 07:47:06 51°12.151 2°48.057 237.4 12.7 239 11.9
2011-10-25 07:47:11 51°12.143 2°48.033 238.2 12.6 240 11.8
2011-10-25 07:47:16 51°12.134 2°48.009 239.1 12.6 241 12
2011-10-25 07:47:21 51°12.126 2°47.984 240.3 12.6 242 12
2011-10-25 07:47:26 51°12.117 2°47.96 240.7 12.7 241 11.9
2011-10-25 07:47:31 51°12.109 2°47.935 240.8 12.7 242 11.9
2011-10-25 07:47:36 51°12.101 2°47.91 241.1 12.6 242 11.8
2011-10-25 07:47:40 51°12.094 2°47.891 241.2 12.7 241 11.7
2011-10-25 07:47:46 51°12.084 2°47.861 240.9 12.6 241 11.9
2011-10-25 07:47:51 51°12.075 2°47.837 240.3 12.6 240 12
2011-10-25 07:47:56 51°12.066 2°47.814 238.5 12.6 238 12
2011-10-25 07:48:00 51°12.058 2°47.795 237.5 12.6 239 11.6
2011-10-25 07:48:06 51°12.047 2°47.767 236.8 12.6 237 11.9
2011-10-25 07:48:11 51°12.037 2°47.743 236.4 12.7 237 11.7
2011-10-25 07:48:16 51°12.028 2°47.719 236.2 12.6 238 11.5
2011-10-25 07:48:20 51°12.021 2°47.701 236.6 12.6 237 11.6
2011-10-25 07:48:26 51°12.009 2°47.672 236.1 12.7 238 11.9
2011-10-25 07:48:31 51°12 2°47.649 236.9 12.7 239 11.6
2011-10-25 07:48:36 51°11.991 2°47.625 237.4 12.6 238 11.5
2011-10-25 07:48:40 51°11.984 2°47.606 237.4 12.7 238 11.6
2011-10-25 07:48:46 51°11.973 2°47.577 237.6 12.6 239 11.5
2011-10-25 07:48:51 51°11.964 2°47.553 238 12.6 238 11.5
2011-10-25 07:48:56 51°11.955 2°47.529 238 12.7 239 11.7
2011-10-25 07:49:00 51°11.948 2°47.51 238.2 12.6 240 11.6
2011-10-25 07:49:06 51°11.937 2°47.481 238.6 12.6 239 11.7
2011-10-25 07:49:11 51°11.928 2°47.457 238.6 12.7 240 11.7
2011-10-25 07:49:16 51°11.919 2°47.433 238.8 12.7 240 11.7
2011-10-25 07:49:20 51°11.912 2°47.413 239.6 12.6 241 11.4
2011-10-25 07:49:26 51°11.902 2°47.384 240.3 12.6 240 11.7
2011-10-25 07:49:31 51°11.893 2°47.359 240.2 12.7 241 11.7
2011-10-25 07:49:36 51°11.885 2°47.335 240.4 12.6 242 11.8
2011-10-25 07:49:40 51°11.878 2°47.316 240.9 12.6 240 11.7
2011-10-25 07:49:46 51°11.868 2°47.286 239.9 12.7 242 11.8
2011-10-25 07:49:51 51°11.86 2°47.262 240.3 12.7 241 11.7
2011-10-25 07:49:56 51°11.851 2°47.237 240.3 12.6 241 11.7
2011-10-25 07:50:00 51°11.844 2°47.218 239.9 12.7 240 11.6
2011-10-25 07:50:06 51°11.834 2°47.189 239.6 12.7 241 11.6
2011-10-25 07:50:11 51°11.825 2°47.165 239.6 12.6 239 11.5
2011-10-25 07:50:16 51°11.816 2°47.141 239.2 12.6 241 11.6
2011-10-25 07:50:20 51°11.809 2°47.121 239.3 12.7 240 11.6
2011-10-25 07:50:25 51°11.801 2°47.097 239.5 12.6 241 11.4
2011-10-25 07:50:31 51°11.79 2°47.068 239.7 12.6 240 11.7
2011-10-25 07:50:36 51°11.781 2°47.044 239.8 12.6 240 11.5
2011-10-25 07:50:40 51°11.775 2°47.025 239.8 12.6 241 11.5
2011-10-25 07:50:46 51°11.764 2°46.995 240 12.6 240 11.6
2011-10-25 07:50:50 51°11.758 2°46.976 239.8 12.6 241 11.6
2011-10-25 07:50:56 51°11.747 2°46.947 239.6 12.7 240 11.6
2011-10-25 07:51:00 51°11.74 2°46.928 239.6 12.6 241 11.5
2011-10-25 07:51:06 51°11.73 2°46.899 239.7 12.6 239 11.4
2011-10-25 07:51:11 51°11.721 2°46.875 239.5 12.6 241 11.5
2011-10-25 07:51:16 51°11.712 2°46.851 239.4 12.6 239 11.4
2011-10-25 07:51:20 51°11.705 2°46.832 238.9 12.6 240 11.4
2011-10-25 07:51:26 51°11.694 2°46.804 238.3 12.6 238 11.5
2011-10-25 07:51:31 51°11.685 2°46.78 238 12.5 239 11.4
2011-10-25 07:51:36 51°11.675 2°46.757 237.4 12.6 236 11.4
2011-10-25 07:51:40 51°11.668 2°46.738 236.2 12.6 238 11.3
2011-10-25 07:51:46 51°11.656 2°46.71 236.2 12.6 236 11.3
2011-10-25 07:51:51 51°11.647 2°46.687 235.7 12.6 236 11.2
2011-10-25 07:51:56 51°11.637 2°46.664 235.2 12.6 236 11.2
2011-10-25 07:52:01 51°11.627 2°46.641 235.1 12.6 236 11.2
2011-10-25 07:52:06 51°11.618 2°46.618 235.5 12.6 237 11
2011-10-25 07:52:11 51°11.608 2°46.595 236 12.5 238 11.2
2011-10-25 07:52:16 51°11.599 2°46.571 236.6 12.6 238 11.3
2011-10-25 07:52:20 51°11.592 2°46.552 237.1 12.5 239 10.8
2011-10-25 07:52:26 51°11.581 2°46.524 237.7 12.6 238 11.2
2011-10-25 07:52:31 51°11.572 2°46.5 238.2 12.5 240 11.2
2011-10-25 07:52:36 51°11.563 2°46.476 238.9 12.6 239 11.2
2011-10-25 07:52:40 51°11.556 2°46.457 238.7 12.5 241 11
2011-10-25 07:52:46 51°11.546 2°46.428 239.2 12.5 240 11.1
2011-10-25 07:52:51 51°11.538 2°46.404 239.5 12.5 241 11.1
2011-10-25 07:52:56 51°11.529 2°46.38 240.2 12.5 241 11
2011-10-25 07:53:00 51°11.523 2°46.36 240.7 12.5 241 11
2011-10-25 07:53:06 51°11.513 2°46.331 240.8 12.5 241 10.9
2011-10-25 07:53:11 51°11.504 2°46.307 240.5 12.5 241 10.9
2011-10-25 07:53:16 51°11.496 2°46.283 240.6 12.5 241 10.9
2011-10-25 07:53:20 51°11.489 2°46.264 240.3 12.5 241 11.1
2011-10-25 07:53:26 51°11.479 2°46.235 240.8 12.4 241 11
2011-10-25 07:53:31 51°11.471 2°46.211 240.5 12.5 240 11
2011-10-25 07:53:36 51°11.462 2°46.187 239.9 12.5 241 11
2011-10-25 07:53:40 51°11.455 2°46.168 239.6 12.4 239 10.8
2011-10-25 07:53:46 51°11.444 2°46.14 238.5 12.5 238 10.9
2011-10-25 07:53:51 51°11.435 2°46.117 237.7 12.5 237 10.8
2011-10-25 07:53:56 51°11.426 2°46.094 237.3 12.4 237 10.9
2011-10-25 07:54:00 51°11.418 2°46.076 236.5 12.4 237 10.9
2011-10-25 07:54:06 51°11.407 2°46.048 236 12.4 237 10.8
2011-10-25 07:54:11 51°11.397 2°46.025 235.8 12.4 237 10.7
2011-10-25 07:54:16 51°11.387 2°46.003 235.3 12.5 236 10.8
2011-10-25 07:54:20 51°11.38 2°45.984 235.8 12.4 238 10.6
2011-10-25 07:54:26 51°11.369 2°45.957 236.6 12.3 236 10.7
2011-10-25 07:54:31 51°11.359 2°45.934 236.2 12.4 237 10.5
2011-10-25 07:54:36 51°11.35 2°45.912 236 12.3 236 10.4
2011-10-25 07:54:40 51°11.342 2°45.893 235.9 12.4 237 10.5
2011-10-25 07:54:46 51°11.331 2°45.866 236.3 12.3 237 10.5
2011-10-25 07:54:51 51°11.322 2°45.843 236.2 12.4 236 10.5
2011-10-25 07:54:56 51°11.311 2°45.821 235.4 12.3 235 10.5
2011-10-25 07:55:00 51°11.304 2°45.803 234.4 12.3 234 10.3
2011-10-25 07:55:06 51°11.292 2°45.777 233.7 12.3 235 10.4
2011-10-25 07:55:11 51°11.282 2°45.755 234 12.3 233 10.4
2011-10-25 07:55:16 51°11.272 2°45.733 233.3 12.4 235 10.4
2011-10-25 07:55:20 51°11.264 2°45.715 234.2 12.2 235 10.2
2011-10-25 07:55:26 51°11.252 2°45.689 234.3 12.2 234 10.2
2011-10-25 07:55:31 51°11.242 2°45.666 233.3 12.3 235 10.3
2011-10-25 07:55:36 51°11.233 2°45.645 233.9 12.2 235 10.2
2011-10-25 07:55:40 51°11.225 2°45.627 234 12.2 236 10.1
2011-10-25 07:55:46 51°11.213 2°45.6 234.2 12.3 235 10.2
2011-10-25 07:55:51 51°11.204 2°45.577 235.2 12.2 238 10.2
2011-10-25 07:55:56 51°11.195 2°45.555 236.4 12.2 238 10.1
2011-10-25 07:56:00 51°11.188 2°45.536 236.9 12.3 239 10.1
2011-10-25 07:56:06 51°11.178 2°45.508 238.9 12.3 241 10.1
2011-10-25 07:56:11 51°11.169 2°45.485 240.2 12.2 240 10.1
2011-10-25 07:56:16 51°11.161 2°45.461 240.4 12.3 242 10.1
2011-10-25 07:56:20 51°11.155 2°45.441 241.9 12.3 243 10
2011-10-25 07:56:26 51°11.145 2°45.413 242.3 12.3 241 10
2011-10-25 07:56:31 51°11.138 2°45.388 241.8 12.3 242 10.1
2011-10-25 07:56:36 51°11.13 2°45.365 242 12.2 241 10
2011-10-25 07:56:40 51°11.123 2°45.345 241.4 12.3 242 10
2011-10-25 07:56:46 51°11.114 2°45.317 241.9 12.2 242 10
2011-10-25 07:56:51 51°11.105 2°45.293 241.7 12.2 241 10.1
2011-10-25 07:56:56 51°11.097 2°45.269 240.9 12.3 242 9.9
2011-10-25 07:57:00 51°11.09 2°45.251 240.9 12.3 241 9.9
2011-10-25 07:57:05 51°11.083 2°45.227 241.4 12.1 242 9.9
2011-10-25 07:57:11 51°11.073 2°45.198 241.2 12.2 241 9.8
2011-10-25 07:57:16 51°11.064 2°45.175 240.7 12.3 242 9.9
2011-10-25 07:57:20 51°11.058 2°45.156 241.1 12.2 241 9.8
2011-10-25 07:57:26 51°11.048 2°45.127 240.6 12.2 241 9.8
2011-10-25 07:57:30 51°11.041 2°45.108 240.5 12.2 241 9.8
2011-10-25 07:57:36 51°11.031 2°45.08 240.7 12.2 242 9.9
2011-10-25 07:57:40 51°11.025 2°45.061 241.1 12.2 241 9.8
2011-10-25 07:57:46 51°11.015 2°45.033 240.8 12.2 240 9.9
2011-10-25 07:57:51 51°11.006 2°45.009 240.5 12.2 241 9.8
2011-10-25 07:57:56 51°10.998 2°44.986 240.8 12.2 240 9.8
2011-10-25 07:58:00 51°10.991 2°44.967 240.4 12.2 241 9.9
2011-10-25 07:58:06 51°10.981 2°44.939 240.3 12.2 240 9.8
2011-10-25 07:58:11 51°10.973 2°44.916 239.7 12.1 239 9.8
2011-10-25 07:58:16 51°10.963 2°44.894 238.2 12.1 236 9.8
2011-10-25 07:58:20 51°10.956 2°44.876 236.1 12.1 236 9.6
2011-10-25 07:58:26 51°10.944 2°44.85 235 12.2 234 9.7
2011-10-25 07:58:31 51°10.934 2°44.828 234.5 12.1 235 9.7
2011-10-25 07:58:36 51°10.924 2°44.807 233.7 12.1 232 9.6
2011-10-25 07:58:41 51°10.915 2°44.785 232.7 12.1 235 9.6
2011-10-25 07:58:46 51°10.904 2°44.764 233 12.2 233 9.7
2011-10-25 07:58:51 51°10.895 2°44.742 233.6 12.1 235 9.6
2011-10-25 07:58:56 51°10.885 2°44.721 233.7 12 234 9.5
2011-10-25 07:59:00 51°10.877 2°44.703 233.6 12 235 9.5
2011-10-25 07:59:06 51°10.865 2°44.678 233.6 12.1 233 9.5
2011-10-25 07:59:11 51°10.856 2°44.656 233.4 12.1 235 9.5
2011-10-25 07:59:16 51°10.846 2°44.634 233.9 12.1 235 9.6
2011-10-25 07:59:20 51°10.839 2°44.616 234.7 11.9 236 9.5
2011-10-25 07:59:25 51°10.829 2°44.595 234.5 12.1 234 9.5
2011-10-25 07:59:31 51°10.817 2°44.568 233.9 12.1 236 9.6
2011-10-25 07:59:36 51°10.808 2°44.547 235.2 12 236 9.4
2011-10-25 07:59:40 51°10.8 2°44.529 234.7 12 235 9.4
2011-10-25 07:59:46 51°10.789 2°44.503 234.5 12.1 237 9.3
2011-10-25 07:59:51 51°10.78 2°44.481 235.4 12.1 237 9.4
2011-10-25 07:59:56 51°10.772 2°44.457 237.1 12 240 9.4
2011-10-25 08:00:00 51°10.765 2°44.439 239.2 12 240 9.4
2011-10-25 08:00:06 51°10.755 2°44.411 240.1 12.1 241 9.3
2011-10-25 08:00:10 51°10.749 2°44.392 240.4 12.1 241 9.3
2011-10-25 08:00:16 51°10.739 2°44.364 241.1 12 242 9.4
2011-10-25 08:00:20 51°10.733 2°44.345 241.9 12 242 9.2
2011-10-25 08:00:26 51°10.724 2°44.317 241.9 12.1 242 9.4
2011-10-25 08:00:31 51°10.717 2°44.293 242.3 12.1 243 9.3
2011-10-25 08:00:36 51°10.709 2°44.27 242.5 12 242 9.4
2011-10-25 08:00:40 51°10.703 2°44.251 242.1 12 242 9.3
2011-10-25 08:00:46 51°10.693 2°44.223 241.9 12 241 9.4
2011-10-25 08:00:51 51°10.685 2°44.2 241.8 12 242 9.3
2011-10-25 08:00:56 51°10.677 2°44.176 241.6 12 242 9.3
2011-10-25 08:01:00 51°10.671 2°44.158 241.7 12.1 242 9.3
2011-10-25 08:01:06 51°10.662 2°44.129 241.8 12.1 242 9.3
2011-10-25 08:01:11 51°10.653 2°44.106 241.4 12.1 241 9.4
2011-10-25 08:01:16 51°10.646 2°44.083 241.8 12 242 9.3
2011-10-25 08:01:20 51°10.639 2°44.064 240.9 12 240 9.3
2011-10-25 08:01:26 51°10.629 2°44.037 240.6 12 240 9.4
2011-10-25 08:01:31 51°10.621 2°44.013 240.3 12 240 9.5
2011-10-25 08:01:36 51°10.613 2°43.991 240 12 240 9.4
2011-10-25 08:01:40 51°10.606 2°43.972 239.8 12 240 9.3
2011-10-25 08:01:46 51°10.596 2°43.944 239.9 12 241 9.3
2011-10-25 08:01:50 51°10.59 2°43.926 240.4 12 241 9.4
2011-10-25 08:01:56 51°10.58 2°43.898 240.3 12 240 9.4
2011-10-25 08:02:00 51°10.573 2°43.88 240.2 12 241 9.3
2011-10-25 08:02:06 51°10.563 2°43.852 239.9 12 239 9.4
2011-10-25 08:02:11 51°10.555 2°43.83 239.7 12 240 9.4
2011-10-25 08:02:16 51°10.546 2°43.807 239.3 12 239 9.4
2011-10-25 08:02:20 51°10.539 2°43.789 238.9 12 239 9.5
2011-10-25 08:02:26 51°10.529 2°43.762 238.5 12 238 9.5
2011-10-25 08:02:31 51°10.52 2°43.739 238.6 11.9 238 9.4
2011-10-25 08:02:36 51°10.511 2°43.717 238 12 238 9.4
2011-10-25 08:02:40 51°10.504 2°43.699 237.6 12 238 9.5
2011-10-25 08:02:46 51°10.493 2°43.673 237.4 12 237 9.4
2011-10-25 08:02:51 51°10.484 2°43.65 237.1 12 237 9.4
2011-10-25 08:02:56 51°10.475 2°43.629 236.9 11.9 236 9.6
2011-10-25 08:03:00 51°10.468 2°43.611 236.5 11.9 236 9.5
2011-10-25 08:03:06 51°10.457 2°43.584 236 12 237 9.6
2011-10-25 08:03:11 51°10.447 2°43.563 236.4 11.9 236 9.5
2011-10-25 08:03:16 51°10.438 2°43.54 236.3 12 237 9.4
2011-10-25 08:03:20 51°10.431 2°43.523 236.2 12 236 9.6
2011-10-25 08:03:26 51°10.42 2°43.496 236.7 11.9 238 9.6
2011-10-25 08:03:31 51°10.411 2°43.474 236.9 12 236 9.5
2011-10-25 08:03:36 51°10.402 2°43.452 236.7 12 238 9.6
2011-10-25 08:03:40 51°10.395 2°43.434 237.3 11.9 238 9.6
2011-10-25 08:03:46 51°10.386 2°43.409 237.8 11.2 238 9.6
2011-10-25 08:03:51 51°10.378 2°43.388 237.8 10.9 239 9.7
2011-10-25 08:03:56 51°10.37 2°43.368 238.9 10.5 238 9.7
2011-10-25 08:04:00 51°10.365 2°43.353 239.1 10.1 240 9.7
2011-10-25 08:04:06 51°10.356 2°43.331 239.4 9.5 239 9.8
2011-10-25 08:04:11 51°10.35 2°43.314 239.6 9.1 239 9.7
2011-10-25 08:04:16 51°10.344 2°43.297 239.6 8.7 239 9.9
2011-10-25 08:04:20 51°10.339 2°43.284 239.4 8.4 239 9.8
2011-10-25 08:04:26 51°10.332 2°43.266 238.7 8.2 237 9.9
2011-10-25 08:04:31 51°10.326 2°43.251 238.1 7.9 238 9.9
2011-10-25 08:04:36 51°10.32 2°43.237 237.3 7.7 236 9.9
2011-10-25 08:04:40 51°10.316 2°43.226 236.6 7.6 237 9.8
2011-10-25 08:04:46 51°10.308 2°43.21 236 7.4 234 9.9
2011-10-25 08:04:51 51°10.303 2°43.197 235.5 7.3 236 9.8
2011-10-25 08:04:56 51°10.297 2°43.184 235.2 7.2 234 10
2011-10-25 08:05:00 51°10.292 2°43.174 235 7.1 235 9.9
2011-10-25 08:05:06 51°10.286 2°43.159 234.9 7 234 9.9
2011-10-25 08:05:11 51°10.28 2°43.146 235.2 6.9 236 9.9
2011-10-25 08:05:16 51°10.275 2°43.134 235.6 6.9 235 10
2011-10-25 08:05:20 51°10.27 2°43.124 235.8 6.8 236 9.9
2011-10-25 08:05:26 51°10.264 2°43.109 235.9 6.8 236 10
2011-10-25 08:05:31 51°10.259 2°43.097 236 6.7 235 10
2011-10-25 08:05:36 51°10.254 2°43.085 235.9 6.6 235 10
2011-10-25 08:05:40 51°10.249 2°43.075 235.8 6.6 235 10
2011-10-25 08:05:46 51°10.243 2°43.061 235.8 6.5 234 10.1
2011-10-25 08:05:51 51°10.239 2°43.05 235.6 6.1 236 10
2011-10-25 08:05:56 51°10.234 2°43.039 235.6 5.8 235 10
2011-10-25 08:06:00 51°10.231 2°43.031 235.5 5.5 237 10
2011-10-25 08:06:05 51°10.227 2°43.022 236.1 5.2 236 10.1
2011-10-25 08:06:11 51°10.223 2°43.01 237.4 4.9 241 10
2011-10-25 08:06:16 51°10.219 2°43.001 240.5 4.6 241 10.1
2011-10-25 08:06:20 51°10.218 2°42.994 242.5 4.3 247 10
2011-10-25 08:06:26 51°10.215 2°42.984 245.6 4.1 246 10.1
2011-10-25 08:06:31 51°10.213 2°42.976 249.3 3.8 252 10.1
2011-10-25 08:06:36 51°10.212 2°42.969 252.4 3.7 252 10.1
2011-10-25 08:06:40 51°10.211 2°42.962 255.2 3.6 257 10.1
2011-10-25 08:06:46 51°10.209 2°42.954 257 3.4 257 10.2
2011-10-25 08:06:51 51°10.209 2°42.946 259.3 3.3 262 10
2011-10-25 08:06:56 51°10.208 2°42.939 261.2 3.2 263 9.8
2011-10-25 08:07:00 51°10.208 2°42.934 262.6 3.1 262 10
2011-10-25 08:07:06 51°10.207 2°42.926 263.6 3 264 10
2011-10-25 08:07:11 51°10.207 2°42.92 264.6 2.9 267 10
2011-10-25 08:07:16 51°10.206 2°42.913 265.5 2.9 266 9.9
2011-10-25 08:07:20 51°10.206 2°42.908 266.3 2.8 267 10.1
2011-10-25 08:07:26 51°10.206 2°42.901 267 2.8 270 10
2011-10-25 08:07:31 51°10.206 2°42.895 267.3 2.7 268 10
2011-10-25 08:07:36 51°10.206 2°42.889 267.7 2.6 271 10
2011-10-25 08:07:40 51°10.206 2°42.885 267.9 2.6 270 9.9
2011-10-25 08:07:46 51°10.206 2°42.878 268.1 2.6 269 10.1
2011-10-25 08:07:51 51°10.206 2°42.872 268.2 2.5 270 10
2011-10-25 08:07:56 51°10.206 2°42.867 268 2.5 270 9.9
2011-10-25 08:08:00 51°10.206 2°42.862 267.8 2.4 269 10
2011-10-25 08:08:06 51°10.206 2°42.856 267.1 2.4 269 10.1
2011-10-25 08:08:11 51°10.206 2°42.851 266.5 2.4 268 10
2011-10-25 08:08:16 51°10.206 2°42.846 265.6 2.3 268 10
2011-10-25 08:08:20 51°10.206 2°42.842 265 2.3 268 10.1
2011-10-25 08:08:25 51°10.206 2°42.837 263.8 2.2 265 10.2
2011-10-25 08:08:31 51°10.205 2°42.831 262.8 2.1 265 10
2011-10-25 08:08:36 51°10.205 2°42.827 261.3 1.9 262 10
2011-10-25 08:08:40 51°10.205 2°42.824 260.4 1.7 264 10
2011-10-25 08:08:46 51°10.204 2°42.82 259.5 1.4 265 10
2011-10-25 08:08:50 51°10.204 2°42.818 258.5 1.2 261 10
2011-10-25 08:08:56 51°10.204 2°42.815 257.4 1 263 10
2011-10-25 08:09:00 51°10.204 2°42.814 256.5 0.9 266 10
2011-10-25 08:09:06 51°10.204 2°42.812 255.4 0.7 259 10.1
2011-10-25 08:09:11 51°10.203 2°42.811 254.1 0.5 262 10.1
2011-10-25 08:09:16 51°10.203 2°42.81 252.3 0.3 268 10.1
2011-10-25 08:09:20 51°10.203 2°42.81 250.9 0.2 264 10
2011-10-25 08:09:26 51°10.204 2°42.81 249.8 0.1 358 10
2011-10-25 08:09:31 51°10.204 2°42.81 248.5 0.2 52 10
2011-10-25 08:09:36 51°10.204 2°42.81 247.5 0.2 58 10
2011-10-25 08:09:40 51°10.204 2°42.811 246.6 0.2 53 10
2011-10-25 08:09:46 51°10.204 2°42.811 246.4 0.2 46 10.1
2011-10-25 08:09:51 51°10.204 2°42.811 246.1 0.2 44 10
2011-10-25 08:09:56 51°10.204 2°42.812 245.9 0.2 55 10
2011-10-25 08:10:00 51°10.204 2°42.812 245.7 0.2 60 10.1
2011-10-25 08:10:06 51°10.205 2°42.812 245.7 0.2 32 10
2011-10-25 08:10:11 51°10.205 2°42.813 245.5 0.2 42 10
2011-10-25 08:10:16 51°10.205 2°42.813 245.4 0.3 31 10
2011-10-25 08:10:20 51°10.205 2°42.813 245.3 0.2 45 10.1
2011-10-25 08:10:26 51°10.206 2°42.813 245 0.3 37 10
2011-10-25 08:10:31 51°10.206 2°42.814 244.7 0.2 56 10.1
2011-10-25 08:10:36 51°10.206 2°42.814 244.2 0.3 32 10
2011-10-25 08:10:40 51°10.206 2°42.814 243.8 0.3 37 9.9
2011-10-25 08:10:46 51°10.207 2°42.815 243.2 0.2 42 10
2011-10-25 08:10:51 51°10.207 2°42.815 242.6 0.2 46 10
2011-10-25 08:10:56 51°10.207 2°42.816 242 0.3 27 10
2011-10-25 08:11:00 51°10.208 2°42.816 241.5 0.3 47 10
2011-10-25 08:11:06 51°10.208 2°42.816 240.9 0.3 24 10
2011-10-25 08:11:11 51°10.208 2°42.817 240.2 0.3 51 10.1
2011-10-25 08:11:16 51°10.209 2°42.817 239.6 0.3 21 10
2011-10-25 08:11:20 51°10.209 2°42.817 239 0.2 38 10.1
2011-10-25 08:11:26 51°10.209 2°42.818 238.8 0.3 39 10
2011-10-25 08:11:31 51°10.21 2°42.818 238.2 0.3 36 10.1
2011-10-25 08:11:36 51°10.21 2°42.819 237.6 0.3 39 10.2
2011-10-25 08:11:40 51°10.21 2°42.819 237.1 0.3 32 10.1
2011-10-25 08:11:46 51°10.211 2°42.819 236.7 0.3 29 10
2011-10-25 08:11:51 51°10.211 2°42.819 236 0.3 37 10.2
2011-10-25 08:11:56 51°10.211 2°42.82 235.6 0.3 39 10.3
2011-10-25 08:12:00 51°10.211 2°42.82 235.1 0.3 43 10.3
2011-10-25 08:12:06 51°10.212 2°42.821 234.5 0.3 22 10.1
2011-10-25 08:12:11 51°10.212 2°42.821 233.9 0.2 43 10.2
2011-10-25 08:12:16 51°10.212 2°42.821 233.6 0.3 45 10.2
2011-10-25 08:12:20 51°10.213 2°42.822 232.9 0.3 36 10.1
2011-10-25 08:12:26 51°10.213 2°42.822 232.3 0.3 30 10.1
2011-10-25 08:12:31 51°10.213 2°42.822 231.7 0.3 34 10.1
2011-10-25 08:12:36 51°10.214 2°42.823 231.5 0.3 33 10.1
2011-10-25 08:12:40 51°10.214 2°42.823 230.9 0.3 30 10
2011-10-25 08:12:46 51°10.215 2°42.824 230.2 0.3 39 10.1
2011-10-25 08:12:51 51°10.215 2°42.824 229.8 0.3 38 10.2
2011-10-25 08:12:56 51°10.215 2°42.824 229.2 0.3 33 10.1
2011-10-25 08:13:00 51°10.216 2°42.825 228.7 0.3 40 10.1
2011-10-25 08:13:06 51°10.216 2°42.825 228.2 0.3 33 10.1
2011-10-25 08:13:11 51°10.216 2°42.826 227.7 0.3 32 10.1